createdAt,value
2018-06-03T00:00:39.860Z,983
2018-06-03T00:01:41.126Z,983
2018-06-03T00:02:42.331Z,983
2018-06-03T00:03:43.877Z,983
2018-06-03T00:04:45.047Z,983.1
2018-06-03T00:05:46.230Z,983.1
2018-06-03T00:06:47.428Z,983
2018-06-03T00:07:56.281Z,983
2018-06-03T00:08:57.550Z,982.9
2018-06-03T00:09:58.722Z,983
2018-06-03T00:10:59.864Z,983
2018-06-03T00:12:03.695Z,983
2018-06-03T00:13:04.892Z,983
2018-06-03T00:14:06.091Z,983
2018-06-03T00:15:07.278Z,983
2018-06-03T00:16:08.438Z,983
2018-06-03T00:17:11.628Z,983.1
2018-06-03T00:18:14.823Z,983
2018-06-03T00:19:16.079Z,983
2018-06-03T00:20:17.265Z,983.1
2018-06-03T00:21:20.981Z,983.1
2018-06-03T00:22:22.166Z,983.1
2018-06-03T00:23:25.587Z,983.1
2018-06-03T00:24:26.804Z,983.1
2018-06-03T00:25:27.957Z,983.1
2018-06-03T00:26:29.122Z,983.1
2018-06-03T00:27:30.327Z,983.1
2018-06-03T00:28:31.524Z,983.1
2018-06-03T00:29:32.740Z,983.1
2018-06-03T00:30:34.021Z,983
2018-06-03T00:31:35.276Z,983.1
2018-06-03T00:32:36.465Z,983.1
2018-06-03T00:33:37.694Z,983
2018-06-03T00:34:38.925Z,983.1
2018-06-03T00:35:40.118Z,983.1
2018-06-03T00:36:41.310Z,983
2018-06-03T00:37:42.511Z,983.1
2018-06-03T00:38:43.761Z,983
2018-06-03T00:39:44.982Z,983.1
2018-06-03T00:40:46.129Z,982.9
2018-06-03T00:41:47.307Z,983.1
2018-06-03T00:42:48.532Z,983
2018-06-03T00:43:49.695Z,983.1
2018-06-03T00:44:50.887Z,983.1
2018-06-03T00:45:52.045Z,983.1
2018-06-03T00:46:53.230Z,983.1
2018-06-03T00:47:54.482Z,983.2
2018-06-03T00:48:55.640Z,983.1
2018-06-03T00:49:56.861Z,983.1
2018-06-03T00:50:58.060Z,983.1
2018-06-03T00:51:59.243Z,983.1
2018-06-03T00:53:03.201Z,982.9
2018-06-03T00:54:04.488Z,983.1
2018-06-03T00:55:05.823Z,983.1
2018-06-03T00:56:06.998Z,983.1
2018-06-03T00:57:08.203Z,983.1
2018-06-03T00:58:11.823Z,983.1
2018-06-03T00:59:13.059Z,983.1
2018-06-03T01:00:14.271Z,983.1
2018-06-03T01:01:20.290Z,983
2018-06-03T01:02:21.502Z,983.2
2018-06-03T01:03:22.665Z,983.2
2018-06-03T01:04:23.914Z,983.2
2018-06-03T01:05:25.292Z,983.1
2018-06-03T01:06:26.468Z,983.1
2018-06-03T01:07:27.695Z,983.1
2018-06-03T01:08:28.894Z,983.1
2018-06-03T01:09:30.090Z,983.1
2018-06-03T01:10:31.366Z,983
2018-06-03T01:11:32.554Z,983
2018-06-03T01:12:33.758Z,983
2018-06-03T01:13:34.940Z,983
2018-06-03T01:14:36.115Z,982.9
2018-06-03T01:15:37.354Z,982.9
2018-06-03T01:16:38.542Z,982.9
2018-06-03T01:17:39.747Z,982.9
2018-06-03T01:18:40.915Z,982.9
2018-06-03T01:19:42.120Z,982.9
2018-06-03T01:20:43.362Z,982.9
2018-06-03T01:21:44.605Z,982.9
2018-06-03T01:22:45.787Z,983
2018-06-03T01:23:47.001Z,982.9
2018-06-03T01:24:48.203Z,982.9
2018-06-03T01:25:49.582Z,982.9
2018-06-03T01:26:50.770Z,982.9
2018-06-03T01:27:52.239Z,982.9
2018-06-03T01:28:53.452Z,982.9
2018-06-03T01:29:54.738Z,982.9
2018-06-03T01:30:56.034Z,983
2018-06-03T01:31:57.204Z,983
2018-06-03T01:32:58.444Z,983
2018-06-03T01:33:59.640Z,983
2018-06-03T01:35:00.819Z,982.9
2018-06-03T01:36:02.081Z,983
2018-06-03T01:37:03.324Z,982.9
2018-06-03T01:38:04.567Z,982.9
2018-06-03T01:39:05.803Z,982.9
2018-06-03T01:40:06.994Z,982.8
2018-06-03T01:41:08.217Z,982.9
2018-06-03T01:42:09.425Z,982.9
2018-06-03T01:43:11.529Z,982.8
2018-06-03T01:44:12.738Z,982.8
2018-06-03T01:45:13.923Z,982.7
2018-06-03T01:46:15.139Z,982.8
2018-06-03T01:47:16.318Z,982.8
2018-06-03T01:48:17.497Z,982.8
2018-06-03T01:49:18.868Z,982.9
2018-06-03T01:50:20.044Z,982.9
2018-06-03T01:51:21.493Z,982.9
2018-06-03T01:52:22.681Z,982.8
2018-06-03T01:53:23.865Z,982.9
2018-06-03T01:54:25.068Z,982.9
2018-06-03T01:55:26.256Z,982.9
2018-06-03T01:56:27.445Z,982.8
2018-06-03T01:57:28.599Z,982.8
2018-06-03T01:58:29.767Z,982.7
2018-06-03T01:59:30.925Z,982.6
2018-06-03T02:00:32.073Z,982.8
2018-06-03T02:01:33.310Z,982.8
2018-06-03T02:02:34.673Z,982.8
2018-06-03T02:03:35.870Z,982.8
2018-06-03T02:04:37.053Z,982.8
2018-06-03T02:05:38.261Z,982.8
2018-06-03T02:06:39.474Z,982.9
2018-06-03T02:07:40.665Z,983
2018-06-03T02:08:42.160Z,983
2018-06-03T02:09:43.347Z,983
2018-06-03T02:10:44.530Z,982.9
2018-06-03T02:11:45.753Z,983
2018-06-03T02:12:46.928Z,983
2018-06-03T02:13:48.091Z,983
2018-06-03T02:14:49.315Z,982.9
2018-06-03T02:15:50.512Z,982.9
2018-06-03T02:16:51.762Z,982.9
2018-06-03T02:17:52.946Z,982.9
2018-06-03T02:18:54.141Z,982.9
2018-06-03T02:19:55.334Z,982.9
2018-06-03T02:20:56.543Z,982.9
2018-06-03T02:21:57.750Z,982.8
2018-06-03T02:22:58.948Z,982.6
2018-06-03T02:24:00.129Z,982.8
2018-06-03T02:25:01.345Z,982.8
2018-06-03T02:26:02.548Z,982.8
2018-06-03T02:27:03.758Z,982.9
2018-06-03T02:28:05.287Z,982.8
2018-06-03T02:29:06.519Z,982.8
2018-06-03T02:30:07.717Z,982.9
2018-06-03T02:31:08.998Z,982.9
2018-06-03T02:32:10.218Z,982.9
2018-06-03T02:33:11.398Z,982.9
2018-06-03T02:34:12.610Z,982.9
2018-06-03T02:35:13.793Z,982.9
2018-06-03T02:36:15.009Z,982.8
2018-06-03T02:37:16.453Z,982.9
2018-06-03T02:38:17.859Z,982.8
2018-06-03T02:39:19.017Z,982.7
2018-06-03T02:40:20.258Z,982.8
2018-06-03T02:41:21.426Z,982.8
2018-06-03T02:42:22.639Z,982.7
2018-06-03T02:43:23.830Z,982.8
2018-06-03T02:44:25.088Z,982.8
2018-06-03T02:45:26.241Z,982.8
2018-06-03T02:46:27.422Z,982.8
2018-06-03T02:47:28.668Z,982.8
2018-06-03T02:48:29.824Z,982.8
2018-06-03T02:49:30.970Z,982.8
2018-06-03T02:50:32.207Z,982.7
2018-06-03T02:51:33.415Z,982.9
2018-06-03T02:52:34.686Z,982.9
2018-06-03T02:53:35.904Z,982.9
2018-06-03T02:54:37.109Z,982.8
2018-06-03T02:55:38.788Z,982.8
2018-06-03T02:56:39.945Z,982.8
2018-06-03T02:57:41.180Z,982.7
2018-06-03T02:58:42.363Z,982.7
2018-06-03T02:59:43.545Z,982.7
2018-06-03T03:00:44.724Z,982.7
2018-06-03T03:01:45.898Z,982.8
2018-06-03T03:02:47.147Z,982.7
2018-06-03T03:03:48.332Z,982.8
2018-06-03T03:04:49.546Z,982.8
2018-06-03T03:05:50.726Z,982.8
2018-06-03T03:06:51.916Z,982.8
2018-06-03T03:07:53.137Z,982.9
2018-06-03T03:08:54.337Z,982.8
2018-06-03T03:09:55.517Z,982.8
2018-06-03T03:10:57.978Z,982.9
2018-06-03T03:11:59.198Z,982.8
2018-06-03T03:13:00.408Z,982.9
2018-06-03T03:14:01.595Z,982.8
2018-06-03T03:15:02.810Z,982.8
2018-06-03T03:16:04.323Z,982.9
2018-06-03T03:17:05.502Z,982.9
2018-06-03T03:18:06.707Z,982.9
2018-06-03T03:19:07.903Z,982.8
2018-06-03T03:20:09.064Z,983
2018-06-03T03:21:10.262Z,983
2018-06-03T03:22:14.489Z,982.9
2018-06-03T03:23:15.731Z,983
2018-06-03T03:24:16.916Z,982.9
2018-06-03T03:25:18.117Z,982.9
2018-06-03T03:26:19.794Z,983
2018-06-03T03:27:21.046Z,983
2018-06-03T03:28:22.281Z,983.1
2018-06-03T03:29:23.489Z,983.1
2018-06-03T03:30:24.709Z,983
2018-06-03T03:31:25.891Z,983.1
2018-06-03T03:32:27.063Z,983.1
2018-06-03T03:33:28.341Z,983.1
2018-06-03T03:34:29.513Z,983.1
2018-06-03T03:35:30.706Z,983.1
2018-06-03T03:36:31.855Z,983
2018-06-03T03:37:33.037Z,983
2018-06-03T03:38:34.564Z,983
2018-06-03T03:39:35.800Z,982.9
2018-06-03T03:40:36.966Z,983
2018-06-03T03:41:38.113Z,983
2018-06-03T03:42:39.284Z,983
2018-06-03T03:43:40.495Z,983
2018-06-03T03:44:41.693Z,983
2018-06-03T03:45:42.865Z,983.1
2018-06-03T03:46:44.072Z,983
2018-06-03T03:47:45.223Z,983
2018-06-03T03:48:46.448Z,983
2018-06-03T03:49:47.593Z,983
2018-06-03T03:50:48.773Z,983
2018-06-03T03:51:49.936Z,983
2018-06-03T03:52:51.182Z,983
2018-06-03T03:53:52.407Z,983
2018-06-03T03:54:53.575Z,983
2018-06-03T03:55:54.994Z,982.9
2018-06-03T03:56:56.961Z,982.9
2018-06-03T03:57:58.228Z,983
2018-06-03T03:58:59.439Z,982.9
2018-06-03T04:00:00.628Z,982.9
2018-06-03T04:01:01.788Z,982.9
2018-06-03T04:02:02.982Z,983
2018-06-03T04:03:04.227Z,983
2018-06-03T04:04:05.518Z,983
2018-06-03T04:05:06.676Z,983
2018-06-03T04:06:07.854Z,983
2018-06-03T04:07:09.038Z,983
2018-06-03T04:08:10.229Z,982.8
2018-06-03T04:09:11.458Z,982.8
2018-06-03T04:10:12.612Z,982.9
2018-06-03T04:11:13.811Z,982.9
2018-06-03T04:12:15.006Z,983
2018-06-03T04:13:16.292Z,983
2018-06-03T04:14:17.418Z,982.9
2018-06-03T04:15:18.585Z,983
2018-06-03T04:16:19.767Z,983
2018-06-03T04:17:20.979Z,982.9
2018-06-03T04:18:22.168Z,983
2018-06-03T04:19:24.459Z,983
2018-06-03T04:20:25.742Z,983
2018-06-03T04:21:26.905Z,983
2018-06-03T04:22:28.089Z,983
2018-06-03T04:23:29.262Z,983
2018-06-03T04:24:30.653Z,983.1
2018-06-03T04:25:31.855Z,983.1
2018-06-03T04:26:33.016Z,983.1
2018-06-03T04:27:34.176Z,983
2018-06-03T04:28:35.372Z,983.1
2018-06-03T04:29:36.596Z,983.1
2018-06-03T04:30:37.782Z,983.1
2018-06-03T04:31:38.947Z,983.1
2018-06-03T04:32:40.618Z,982.9
2018-06-03T04:33:41.830Z,983.2
2018-06-03T04:34:43.096Z,983.2
2018-06-03T04:35:44.286Z,983.2
2018-06-03T04:36:45.433Z,983.2
2018-06-03T04:37:46.596Z,983.2
2018-06-03T04:38:47.746Z,983.2
2018-06-03T04:39:49.212Z,983.1
2018-06-03T04:40:50.376Z,983.1
2018-06-03T04:41:51.557Z,983.1
2018-06-03T04:42:52.748Z,983.1
2018-06-03T04:43:53.942Z,983.1
2018-06-03T04:44:55.164Z,983.1
2018-06-03T04:45:56.445Z,983.2
2018-06-03T04:46:57.734Z,983.1
2018-06-03T04:47:58.911Z,983.1
2018-06-03T04:49:00.099Z,983.1
2018-06-03T04:50:01.330Z,983.1
2018-06-03T04:51:02.512Z,983.1
2018-06-03T04:52:03.715Z,983.1
2018-06-03T04:53:04.898Z,982.9
2018-06-03T04:54:06.062Z,983
2018-06-03T04:55:07.310Z,983
2018-06-03T04:56:08.453Z,983
2018-06-03T04:57:09.663Z,983.1
2018-06-03T04:58:10.812Z,983.1
2018-06-03T04:59:12.010Z,983.1
2018-06-03T05:00:13.270Z,983
2018-06-03T05:01:14.431Z,983
2018-06-03T05:02:15.611Z,983.1
2018-06-03T05:03:16.834Z,983.1
2018-06-03T05:04:18.032Z,983.1
2018-06-03T05:05:19.203Z,983.1
2018-06-03T05:06:20.836Z,982.9
2018-06-03T05:07:22.025Z,983.1
2018-06-03T05:08:23.186Z,983.2
2018-06-03T05:09:24.340Z,983.2
2018-06-03T05:10:25.585Z,983.2
2018-06-03T05:11:26.769Z,983.2
2018-06-03T05:12:27.953Z,983.3
2018-06-03T05:13:29.107Z,983.2
2018-06-03T05:14:30.267Z,983.3
2018-06-03T05:15:31.476Z,983.3
2018-06-03T05:16:32.662Z,983.3
2018-06-03T05:17:34.150Z,983.4
2018-06-03T05:18:35.334Z,983.3
2018-06-03T05:19:36.500Z,983.3
2018-06-03T05:20:37.719Z,983.2
2018-06-03T05:21:38.947Z,983.3
2018-06-03T05:22:40.161Z,983.5
2018-06-03T05:23:41.312Z,983.5
2018-06-03T05:24:42.521Z,983.5
2018-06-03T05:25:43.986Z,983.5
2018-06-03T05:26:45.162Z,983.5
2018-06-03T05:27:46.332Z,983.6
2018-06-03T05:28:47.504Z,983.6
2018-06-03T05:29:48.681Z,983.4
2018-06-03T05:30:49.907Z,983.4
2018-06-03T05:31:51.059Z,983.3
2018-06-03T05:32:52.231Z,983.4
2018-06-03T05:33:53.394Z,983.4
2018-06-03T05:34:54.559Z,983.5
2018-06-03T05:35:55.739Z,983.5
2018-06-03T05:36:56.897Z,983.5
2018-06-03T05:37:58.038Z,983.5
2018-06-03T05:38:59.215Z,983.6
2018-06-03T05:40:00.462Z,983.5
2018-06-03T05:41:01.793Z,983.4
2018-06-03T05:42:02.944Z,983.5
2018-06-03T05:43:04.103Z,983.6
2018-06-03T05:44:05.312Z,983.7
2018-06-03T05:45:06.470Z,983.7
2018-06-03T05:46:07.687Z,983.7
2018-06-03T05:47:08.896Z,983.6
2018-06-03T05:48:10.064Z,983.6
2018-06-03T05:49:11.225Z,983.6
2018-06-03T05:50:12.417Z,983.7
2018-06-03T05:51:13.604Z,983.6
2018-06-03T05:52:14.827Z,983.7
2018-06-03T05:53:16.050Z,983.7
2018-06-03T05:54:17.242Z,983.7
2018-06-03T05:55:18.423Z,983.7
2018-06-03T05:56:20.132Z,983.8
2018-06-03T05:57:21.363Z,984.1
2018-06-03T05:58:22.531Z,984.1
2018-06-03T05:59:24.142Z,984
2018-06-03T06:00:25.313Z,983.9
2018-06-03T06:01:26.510Z,984.1
2018-06-03T06:02:27.694Z,984.2
2018-06-03T06:03:28.866Z,984
2018-06-03T06:04:30.020Z,984.1
2018-06-03T06:05:31.270Z,984
2018-06-03T06:06:32.480Z,983.9
2018-06-03T06:07:33.626Z,983.9
2018-06-03T06:08:34.841Z,984
2018-06-03T06:09:36.110Z,984
2018-06-03T06:10:37.301Z,984.2
2018-06-03T06:11:38.531Z,984
2018-06-03T06:12:39.703Z,984.1
2018-06-03T06:13:40.895Z,984
2018-06-03T06:14:42.110Z,983.8
2018-06-03T06:15:43.320Z,983.9
2018-06-03T06:16:44.906Z,984
2018-06-03T06:17:46.166Z,984.1
2018-06-03T06:18:47.313Z,984.1
2018-06-03T06:19:48.482Z,984.2
2018-06-03T06:20:49.645Z,984.1
2018-06-03T06:21:50.920Z,984.1
2018-06-03T06:22:52.116Z,984
2018-06-03T06:23:54.383Z,984.1
2018-06-03T06:24:55.582Z,984
2018-06-03T06:25:56.819Z,984
2018-06-03T06:26:58.040Z,984
2018-06-03T06:27:59.246Z,984
2018-06-03T06:29:00.507Z,984.1
2018-06-03T06:30:03.209Z,984.1
2018-06-03T06:31:04.402Z,984.1
2018-06-03T06:32:05.618Z,984.2
2018-06-03T06:33:06.799Z,984.1
2018-06-03T06:34:08.011Z,984
2018-06-03T06:35:09.182Z,984.1
2018-06-03T06:36:10.351Z,984.3
2018-06-03T06:37:14.309Z,984.2
2018-06-03T06:38:15.521Z,984.1
2018-06-03T06:39:16.710Z,984.2
2018-06-03T06:40:17.880Z,984.3
2018-06-03T06:41:19.085Z,984.2
2018-06-03T06:42:20.341Z,984.2
2018-06-03T06:43:21.498Z,984.2
2018-06-03T06:44:22.731Z,984.3
2018-06-03T06:45:23.916Z,984.1
2018-06-03T06:46:25.088Z,984.2
2018-06-03T06:47:26.403Z,984.2
2018-06-03T06:48:27.639Z,984.2
2018-06-03T06:49:28.820Z,984.2
2018-06-03T06:50:30.038Z,984.3
2018-06-03T06:51:31.593Z,984.3
2018-06-03T06:52:32.795Z,984.3
2018-06-03T06:53:34.001Z,984.3
2018-06-03T06:54:35.178Z,984.2
2018-06-03T06:55:36.395Z,984.3
2018-06-03T06:56:37.559Z,984.2
2018-06-03T06:57:38.801Z,984.3
2018-06-03T06:58:39.999Z,984.3
2018-06-03T06:59:41.198Z,984.4
2018-06-03T07:00:42.410Z,984.4
2018-06-03T07:01:43.597Z,984.4
2018-06-03T07:02:44.811Z,984.4
2018-06-03T07:03:46.072Z,984.4
2018-06-03T07:04:47.257Z,984.5
2018-06-03T07:05:48.384Z,984.4
2018-06-03T07:06:49.588Z,984.4
2018-06-03T07:07:50.780Z,984.5
2018-06-03T07:08:51.949Z,984.4
2018-06-03T07:09:53.114Z,984.2
2018-06-03T07:10:54.302Z,984.5
2018-06-03T07:11:55.519Z,984.5
2018-06-03T07:13:00.468Z,984.4
2018-06-03T07:14:01.785Z,984.6
2018-06-03T07:15:03.005Z,984.6
2018-06-03T07:16:04.279Z,984.5
2018-06-03T07:17:05.553Z,984.6
2018-06-03T07:18:06.758Z,984.6
2018-06-03T07:19:07.916Z,984.7
2018-06-03T07:20:09.071Z,984.7
2018-06-03T07:21:10.417Z,984.6
2018-06-03T07:22:11.621Z,984.8
2018-06-03T07:23:12.853Z,984.7
2018-06-03T07:24:14.075Z,984.6
2018-06-03T07:25:15.258Z,984.8
2018-06-03T07:26:16.595Z,984.6
2018-06-03T07:27:17.743Z,984.7
2018-06-03T07:28:19.018Z,984.5
2018-06-03T07:29:20.204Z,984.9
2018-06-03T07:30:21.357Z,984.8
2018-06-03T07:31:22.530Z,984.5
2018-06-03T07:32:23.698Z,984.5
2018-06-03T07:33:27.106Z,984.7
2018-06-03T07:34:28.321Z,984.6
2018-06-03T07:35:29.497Z,984.5
2018-06-03T07:36:30.668Z,984.3
2018-06-03T07:37:31.885Z,984.5
2018-06-03T07:38:33.106Z,984.4
2018-06-03T07:39:34.289Z,984.4
2018-06-03T07:40:35.481Z,984.5
2018-06-03T07:41:36.706Z,984.6
2018-06-03T07:42:37.910Z,984.6
2018-06-03T07:43:39.137Z,984.8
2018-06-03T07:44:40.413Z,984.8
2018-06-03T07:45:41.629Z,984.9
2018-06-03T07:46:42.818Z,984.7
2018-06-03T07:47:43.981Z,984.6
2018-06-03T07:48:45.188Z,984.4
2018-06-03T07:49:46.410Z,984.5
2018-06-03T07:50:47.606Z,984.6
2018-06-03T07:51:48.818Z,984.7
2018-06-03T07:52:50.008Z,984.6
2018-06-03T07:53:51.275Z,984.5
2018-06-03T07:54:52.445Z,984.9
2018-06-03T07:55:53.622Z,984.5
2018-06-03T07:56:54.832Z,984.5
2018-06-03T07:57:56.148Z,984.4
2018-06-03T07:58:57.642Z,984.4
2018-06-03T07:59:58.818Z,984.5
2018-06-03T08:01:00.041Z,984.5
2018-06-03T08:02:01.370Z,984.7
2018-06-03T08:03:02.568Z,984.7
2018-06-03T08:04:03.823Z,984.5
2018-06-03T08:05:05.024Z,984.4
2018-06-03T08:06:06.305Z,984.4
2018-06-03T08:07:07.528Z,984.4
2018-06-03T08:08:08.761Z,984.6
2018-06-03T08:09:09.970Z,984.5
2018-06-03T08:10:11.130Z,984.4
2018-06-03T08:11:12.316Z,984.4
2018-06-03T08:12:13.518Z,984.4
2018-06-03T08:13:16.369Z,984.8
2018-06-03T08:14:17.626Z,984.7
2018-06-03T08:15:18.829Z,984.4
2018-06-03T08:16:21.509Z,984.7
2018-06-03T08:17:22.709Z,984.7
2018-06-03T08:18:23.872Z,984.9
2018-06-03T08:19:25.121Z,984.7
2018-06-03T08:20:26.400Z,984.7
2018-06-03T08:21:27.563Z,984.6
2018-06-03T08:22:28.758Z,984.4
2018-06-03T08:23:29.932Z,984.4
2018-06-03T08:24:31.214Z,984.8
2018-06-03T08:25:32.384Z,985
2018-06-03T08:26:33.636Z,984.6
2018-06-03T08:27:34.993Z,984.5
2018-06-03T08:28:36.259Z,984.2
2018-06-03T08:29:37.512Z,984.3
2018-06-03T08:30:38.704Z,984.3
2018-06-03T08:31:43.620Z,984.4
2018-06-03T08:32:44.813Z,984.4
2018-06-03T08:33:46.090Z,984.3
2018-06-03T08:34:47.375Z,984.2
2018-06-03T08:35:48.607Z,984.3
2018-06-03T08:36:49.788Z,984.4
2018-06-03T08:37:50.975Z,984.5
2018-06-03T08:38:52.167Z,984.5
2018-06-03T08:39:53.404Z,984.8
2018-06-03T08:40:54.611Z,984.4
2018-06-03T08:41:55.955Z,984.3
2018-06-03T08:42:57.466Z,984.7
2018-06-03T08:43:58.672Z,984.6
2018-06-03T08:45:00.177Z,984.5
2018-06-03T08:46:01.440Z,984.5
2018-06-03T08:47:02.612Z,984.5
2018-06-03T08:48:03.822Z,984.9
2018-06-03T08:49:05.039Z,984.9
2018-06-03T08:50:06.384Z,985
2018-06-03T08:51:08.262Z,984.7
2018-06-03T08:52:10.072Z,984.5
2018-06-03T08:53:12.062Z,984.4
2018-06-03T08:54:13.279Z,984.4
2018-06-03T08:55:14.563Z,984.3
2018-06-03T08:56:15.836Z,984
2018-06-03T08:57:17.120Z,984.1
2018-06-03T08:58:25.571Z,984.2
2018-06-03T08:59:26.859Z,984.2
2018-06-03T09:00:28.277Z,984.2
2018-06-03T09:01:29.465Z,984.4
2018-06-03T09:02:30.826Z,984.6
2018-06-03T09:03:32.102Z,985
2018-06-03T09:04:33.372Z,984.4
2018-06-03T09:05:34.634Z,984.4
2018-06-03T09:06:35.850Z,984.2
2018-06-03T09:07:37.167Z,984.3
2018-06-03T09:08:38.516Z,984.2
2018-06-03T09:09:39.834Z,984.4
2018-06-03T09:10:41.319Z,984.4
2018-06-03T09:11:45.680Z,984.5
2018-06-03T09:12:46.977Z,984.3
2018-06-03T09:13:48.224Z,984.6
2018-06-03T09:14:49.482Z,984.3
2018-06-03T09:15:51.087Z,984.3
2018-06-03T09:16:52.323Z,984.3
2018-06-03T09:17:53.583Z,984.4
2018-06-03T09:18:54.895Z,984.4
2018-06-03T09:19:56.332Z,984.7
2018-06-03T09:20:57.594Z,984.4
2018-06-03T09:21:58.820Z,984.5
2018-06-03T09:23:00.090Z,984.4
2018-06-03T09:24:01.381Z,984.4
2018-06-03T09:25:02.620Z,984.3
2018-06-03T09:26:03.859Z,984.2
2018-06-03T09:27:05.120Z,984.4
2018-06-03T09:28:10.222Z,984.4
2018-06-03T09:29:13.490Z,984.4
2018-06-03T09:30:14.660Z,984.2
2018-06-03T09:31:19.865Z,984.5
2018-06-03T09:32:21.067Z,984.6
2018-06-03T09:33:22.752Z,984.6
2018-06-03T09:34:27.913Z,984.3
2018-06-03T09:35:35.196Z,984.2
2018-06-03T09:36:36.437Z,984.2
2018-06-03T09:37:37.639Z,984.4
2018-06-03T09:38:38.836Z,984.4
2018-06-03T09:39:40.063Z,984.2
2018-06-03T09:40:41.267Z,984.1
2018-06-03T09:41:42.562Z,984.3
2018-06-03T09:42:44.252Z,984.2
2018-06-03T09:43:45.464Z,984.2
2018-06-03T09:44:46.894Z,984.2
2018-06-03T09:45:48.096Z,984.4
2018-06-03T09:46:51.231Z,984.3
2018-06-03T09:47:52.432Z,984.1
2018-06-03T09:48:53.799Z,984.1
2018-06-03T09:49:55.140Z,984.1
2018-06-03T09:50:56.405Z,984.2
2018-06-03T09:51:57.684Z,984.2
2018-06-03T09:52:59.750Z,984.1
2018-06-03T09:54:00.989Z,984.1
2018-06-03T09:55:04.431Z,984.2
2018-06-03T09:56:05.657Z,984.1
2018-06-03T09:57:07.081Z,983.9
2018-06-03T09:58:08.322Z,984
2018-06-03T09:59:09.728Z,984.5
2018-06-03T10:00:10.987Z,984.4
2018-06-03T10:01:12.254Z,984.3
2018-06-03T10:02:13.542Z,984.1
2018-06-03T10:03:14.919Z,984.1
2018-06-03T10:04:16.136Z,984.1
2018-06-03T10:05:19.865Z,983.9
2018-06-03T10:06:21.046Z,983.9
2018-06-03T10:07:24.517Z,983.8
2018-06-03T10:08:25.748Z,984.1
2018-06-03T10:09:27.058Z,983.7
2018-06-03T10:10:28.262Z,983.8
2018-06-03T10:11:29.462Z,983.8
2018-06-03T10:12:30.718Z,983.9
2018-06-03T10:13:31.981Z,984
2018-06-03T10:14:33.174Z,984.1
2018-06-03T10:15:34.358Z,984.1
2018-06-03T10:16:35.522Z,984.1
2018-06-03T10:17:39.990Z,984.4
2018-06-03T10:18:41.190Z,984.4
2018-06-03T10:19:42.401Z,983.9
2018-06-03T10:20:43.556Z,983.9
2018-06-03T10:21:44.785Z,984
2018-06-03T10:22:46.085Z,983.8
2018-06-03T10:23:47.281Z,983.9
2018-06-03T10:24:48.552Z,983.9
2018-06-03T10:25:49.733Z,984.4
2018-06-03T10:26:50.951Z,984.5
2018-06-03T10:27:52.184Z,984.2
2018-06-03T10:28:53.367Z,984.1
2018-06-03T10:29:54.607Z,983.8
2018-06-03T10:30:55.803Z,983.8
2018-06-03T10:31:57.032Z,983.9
2018-06-03T10:32:58.373Z,984.1
2018-06-03T10:33:59.578Z,984.2
2018-06-03T10:35:00.789Z,984.1
2018-06-03T10:36:02.053Z,984.3
2018-06-03T10:37:03.601Z,984.2
2018-06-03T10:38:04.883Z,984.2
2018-06-03T10:39:06.150Z,984.2
2018-06-03T10:40:07.404Z,984.1
2018-06-03T10:41:09.302Z,983.8
2018-06-03T10:42:10.590Z,983.9
2018-06-03T10:43:12.481Z,983.8
2018-06-03T10:44:15.569Z,983.6
2018-06-03T10:45:16.863Z,983.7
2018-06-03T10:46:18.080Z,984
2018-06-03T10:47:19.312Z,984.1
2018-06-03T10:48:20.876Z,984.2
2018-06-03T10:49:22.081Z,983.9
2018-06-03T10:50:23.286Z,983.7
2018-06-03T10:51:24.620Z,983.8
2018-06-03T10:52:31.097Z,983.8
2018-06-03T10:53:32.417Z,983.6
2018-06-03T10:54:33.622Z,983.6
2018-06-03T10:55:34.799Z,983.6
2018-06-03T10:56:36.030Z,984
2018-06-03T10:57:37.421Z,983.8
2018-06-03T10:58:38.695Z,983.9
2018-06-03T10:59:39.901Z,983.7
2018-06-03T11:00:41.073Z,983.6
2018-06-03T11:01:42.275Z,983.6
2018-06-03T11:02:43.465Z,983.6
2018-06-03T11:03:44.719Z,983.7
2018-06-03T11:04:45.976Z,983.5
2018-06-03T11:05:47.236Z,983.5
2018-06-03T11:06:48.437Z,983.6
2018-06-03T11:07:49.684Z,983.5
2018-06-03T11:08:50.947Z,983.6
2018-06-03T11:09:52.262Z,983.6
2018-06-03T11:10:53.472Z,983.7
2018-06-03T11:11:54.757Z,983.6
2018-06-03T11:13:00.873Z,983.7
2018-06-03T11:14:02.144Z,983.8
2018-06-03T11:15:06.366Z,984
2018-06-03T11:16:07.607Z,983.9
2018-06-03T11:17:08.878Z,983.9
2018-06-03T11:18:10.106Z,983.7
2018-06-03T11:19:11.706Z,983.7
2018-06-03T11:20:12.937Z,983.8
2018-06-03T11:21:14.162Z,983.7
2018-06-03T11:22:16.945Z,983.6
2018-06-03T11:23:18.234Z,983.6
2018-06-03T11:24:19.456Z,983.4
2018-06-03T11:25:20.675Z,983.5
2018-06-03T11:26:21.979Z,983.8
2018-06-03T11:27:23.287Z,983.8
2018-06-03T11:28:24.485Z,983.5
2018-06-03T11:29:26.023Z,983.5
2018-06-03T11:30:27.236Z,983.9
2018-06-03T11:31:28.437Z,983.8
2018-06-03T11:32:29.654Z,983.6
2018-06-03T11:33:31.000Z,983.8
2018-06-03T11:34:32.468Z,983.6
2018-06-03T11:35:33.666Z,983.5
2018-06-03T11:36:35.070Z,983.6
2018-06-03T11:37:36.289Z,983.6
2018-06-03T11:38:37.683Z,983.7
2018-06-03T11:39:38.988Z,983.7
2018-06-03T11:40:40.235Z,983.8
2018-06-03T11:41:41.583Z,984
2018-06-03T11:42:42.797Z,984
2018-06-03T11:43:44.185Z,983.6
2018-06-03T11:44:45.674Z,983.7
2018-06-03T11:45:46.910Z,983.6
2018-06-03T11:46:48.073Z,983.6
2018-06-03T11:47:49.281Z,983.6
2018-06-03T11:48:50.522Z,983.8
2018-06-03T11:49:52.709Z,983.5
2018-06-03T11:50:53.900Z,983.6
2018-06-03T11:51:55.125Z,983.5
2018-06-03T11:52:56.349Z,983.7
2018-06-03T11:53:57.597Z,983.5
2018-06-03T11:54:58.875Z,983.8
2018-06-03T11:56:00.057Z,983.5
2018-06-03T11:57:01.331Z,983.3
2018-06-03T11:58:02.522Z,983.6
2018-06-03T11:59:03.693Z,983.6
2018-06-03T12:00:07.303Z,983.6
2018-06-03T12:01:08.543Z,983.5
2018-06-03T12:02:09.708Z,983.4
2018-06-03T12:03:10.943Z,983.5
2018-06-03T12:04:14.292Z,983.5
2018-06-03T12:05:15.546Z,983.5
2018-06-03T12:06:21.673Z,983.3
2018-06-03T12:07:23.278Z,983.4
2018-06-03T12:08:24.523Z,983.4
2018-06-03T12:09:25.723Z,983.5
2018-06-03T12:10:26.931Z,983.4
2018-06-03T12:11:28.144Z,983.4
2018-06-03T12:12:29.373Z,983.4
2018-06-03T12:13:30.574Z,983.6
2018-06-03T12:14:31.791Z,983.4
2018-06-03T12:15:33.083Z,983.3
2018-06-03T12:16:34.262Z,983.4
2018-06-03T12:17:35.444Z,983.4
2018-06-03T12:18:36.882Z,983.4
2018-06-03T12:19:38.049Z,983.5
2018-06-03T12:20:39.765Z,983.6
2018-06-03T12:21:41.093Z,983.4
2018-06-03T12:22:42.317Z,983.4
2018-06-03T12:23:43.504Z,983.4
2018-06-03T12:24:44.811Z,983.5
2018-06-03T12:25:46.175Z,983.3
2018-06-03T12:26:47.438Z,983.3
2018-06-03T12:27:48.753Z,983.3
2018-06-03T12:28:53.084Z,983.4
2018-06-03T12:29:54.278Z,983.3
2018-06-03T12:30:55.538Z,983.4
2018-06-03T12:31:56.740Z,983.5
2018-06-03T12:32:58.084Z,983.3
2018-06-03T12:33:59.421Z,983.4
2018-06-03T12:35:01.075Z,983.3
2018-06-03T12:36:02.706Z,983.4
2018-06-03T12:37:03.922Z,983.4
2018-06-03T12:38:05.393Z,983.4
2018-06-03T12:39:06.794Z,983.4
2018-06-03T12:40:08.089Z,983.3
2018-06-03T12:41:09.381Z,983.3
2018-06-03T12:42:13.327Z,983.5
2018-06-03T12:43:14.735Z,983.6
2018-06-03T12:44:16.159Z,983.2
2018-06-03T12:45:17.538Z,983.1
2018-06-03T12:46:19.024Z,983.2
2018-06-03T12:47:20.460Z,983.3
2018-06-03T12:48:21.624Z,983.2
2018-06-03T12:49:22.886Z,983.3
2018-06-03T12:50:24.072Z,983
2018-06-03T12:51:25.656Z,983.2
2018-06-03T12:52:27.084Z,983
2018-06-03T12:53:34.800Z,983.1
2018-06-03T12:54:36.032Z,983.2
2018-06-03T12:55:37.260Z,983.3
2018-06-03T12:56:38.565Z,983.2
2018-06-03T12:57:40.959Z,983.2
2018-06-03T12:58:43.832Z,983.2
2018-06-03T12:59:49.002Z,982.9
2018-06-03T13:00:50.196Z,983
2018-06-03T13:01:53.246Z,983
2018-06-03T13:02:54.541Z,983
2018-06-03T13:03:55.921Z,983.4
2018-06-03T13:04:57.164Z,983.1
2018-06-03T13:05:58.511Z,983.1
2018-06-03T13:06:59.823Z,983
2018-06-03T13:08:01.266Z,982.9
2018-06-03T13:09:02.494Z,983.1
2018-06-03T13:10:03.728Z,983.2
2018-06-03T13:11:04.943Z,983.1
2018-06-03T13:12:06.224Z,983.1
2018-06-03T13:13:09.628Z,983
2018-06-03T13:14:11.204Z,982.9
2018-06-03T13:15:12.453Z,982.9
2018-06-03T13:16:13.851Z,983
2018-06-03T13:17:18.197Z,983
2018-06-03T13:18:19.413Z,983
2018-06-03T13:19:20.640Z,982.8